Time;durP1;ratioP1;P1;durP2;ratioP2;P2;SDS_P1;SDS_P2;PMS_P1;PMS_P2;Temp;Humidity;BMP_temperature;BMP_pressure;BME280_temperature;BME280_humidity;BME280_pressure;Samples;Min_cycle;Max_cycle;Signal;HPM_P1;HPM_P2
2022/11/05 00:10:23;;;;;;;1.70;1.40;;;;;;;17.49;50.47;92818.41;5053360;28;20452;-86
2022/11/05 00:18:19;;;;;;;1.80;1.30;;;;;;;17.48;49.98;92845.00;5052162;28;20036;-88
2022/11/05 00:20:44;;;;;;;1.98;1.48;;;;;;;17.50;50.03;92849.19;5034976;28;20032;-87
2022/11/05 00:26:00;;;;;;;2.28;1.50;;;;;;;17.47;50.06;92853.69;5055377;28;20101;-87
2022/11/05 00:28:26;;;;;;;2.00;1.20;;;;;;;17.47;50.42;92861.91;5054168;28;20123;-89
2022/11/05 00:30:52;;;;;;;1.60;1.10;;;;;;;17.47;50.11;92853.69;5059684;28;20035;-88
2022/11/05 00:33:17;;;;;;;2.47;1.20;;;;;;;17.47;50.13;92853.69;5073987;28;20065;-86
2022/11/05 00:35:42;;;;;;;1.67;1.33;;;;;;;17.48;50.16;92858.66;5091580;28;20517;-87
2022/11/05 00:38:08;;;;;;;1.98;1.10;;;;;;;17.47;50.17;92859.16;5073607;28;20040;-86
2022/11/05 00:40:33;;;;;;;1.33;1.08;;;;;;;17.47;50.13;92864.63;5088864;27;20046;-90
2022/11/05 00:45:42;;;;;;;1.83;1.25;;;;;;;17.49;50.07;92864.84;5100187;27;20035;-90
2022/11/05 00:50:51;;;;;;;1.75;1.15;;;;;;;17.47;50.15;92883.75;5128990;27;20516;-87
2022/11/05 00:53:17;;;;;;;1.30;1.10;;;;;;;17.45;50.45;92884.28;5076692;28;20040;-88
2022/11/05 00:55:43;;;;;;;1.75;1.20;;;;;;;17.46;50.13;92893.22;5054015;28;20048;-87
2022/11/05 00:58:12;;;;;;;1.50;1.10;;;;;;;17.48;50.42;92894.19;5036667;28;20475;-86
2022/11/05 01:00:42;;;;;;;1.45;1.20;;;;;;;17.47;50.12;92900.16;5046499;28;20554;-86
2022/11/05 01:03:09;;;;;;;2.23;1.20;;;;;;;17.47;50.29;92897.41;5036883;28;20151;-88
2022/11/05 01:05:38;;;;;;;2.25;1.25;;;;;;;17.45;50.40;92903.41;5070978;28;20065;-86
2022/11/05 01:08:03;;;;;;;2.90;1.30;;;;;;;17.48;50.01;92905.09;5073862;28;20040;-86
2022/11/05 01:10:29;;;;;;;1.25;1.00;;;;;;;17.47;50.23;92900.16;5092559;28;20036;-88
2022/11/05 01:12:54;;;;;;;2.13;0.95;;;;;;;17.48;49.64;92907.09;5070815;28;20036;-88
2022/11/05 01:15:20;;;;;;;1.48;1.00;;;;;;;17.46;50.13;92906.88;5104218;27;20058;-88
2022/11/05 01:17:45;;;;;;;1.52;1.20;;;;;;;17.45;50.11;92903.41;5073702;28;20087;-86
2022/11/05 01:20:11;;;;;;;1.50;1.02;;;;;;;17.46;50.14;92899.41;5085702;27;20397;-88
2022/11/05 01:22:36;;;;;;;2.10;1.30;;;;;;;17.45;50.26;92895.19;5111174;27;20378;-88
2022/11/05 01:25:02;;;;;;;1.45;0.90;;;;;;;17.47;50.02;92881.03;5054905;28;20505;-87
2022/11/05 01:27:28;;;;;;;1.65;1.17;;;;;;;17.46;50.14;92874.81;5036663;28;20115;-88
2022/11/05 01:29:53;;;;;;;1.27;1.00;;;;;;;17.48;50.39;92874.31;5058411;28;20108;-90
2022/11/05 01:32:18;;;;;;;1.27;1.15;;;;;;;17.50;50.23;92868.31;5084811;27;20532;-88
2022/11/05 01:34:44;;;;;;;1.92;1.20;;;;;;;17.45;50.10;92867.88;5093160;27;20043;-86
2022/11/05 01:37:09;;;;;;;1.13;1.02;;;;;;;17.47;50.13;92872.84;5076482;27;20031;-87
2022/11/05 01:39:35;;;;;;;1.90;1.10;;;;;;;17.45;50.11;92881.53;5076224;27;20454;-89
2022/11/05 01:42:00;;;;;;;1.58;1.27;;;;;;;17.44;50.04;92885.53;5079042;28;20040;-87
2022/11/05 01:44:56;;;;;;;1.50;1.13;;;;;;;17.47;50.41;92873.56;5052750;28;20516;-87
2022/11/05 01:47:24;;;;;;;1.25;0.90;;;;;;;17.47;50.11;92878.28;5087842;28;20109;-88
2022/11/05 01:49:50;;;;;;;1.25;1.00;;;;;;;17.46;50.11;92879.53;5069687;28;20444;-87
2022/11/05 01:52:15;;;;;;;1.83;1.10;;;;;;;17.45;50.23;92887.00;5073039;28;20031;-88
2022/11/05 01:54:41;;;;;;;1.85;1.00;;;;;;;17.46;50.13;92893.22;5079550;28;20359;-86
2022/11/05 01:57:07;;;;;;;2.47;1.08;;;;;;;17.48;50.18;92896.16;5092799;28;20047;-87
2022/11/05 01:59:35;;;;;;;1.95;1.08;;;;;;;17.44;50.37;92907.38;5071670;28;20132;-86
2022/11/05 02:02:00;;;;;;;1.38;0.98;;;;;;;17.44;50.27;92915.59;5047370;28;20097;-88
2022/11/05 02:04:30;;;;;;;0.75;0.70;;;;;;;17.43;50.46;92914.09;5068682;28;20116;-87
2022/11/05 02:06:56;;;;;;;1.88;1.13;;;;;;;17.46;50.16;92910.34;5069954;28;20032;-88
2022/11/05 02:09:23;;;;;;;1.10;0.90;;;;;;;17.42;50.36;92920.09;5039041;28;20039;-89
2022/11/05 02:11:49;;;;;;;1.33;1.10;;;;;;;17.43;50.25;92929.75;5073004;28;20044;-89
2022/11/05 02:14:14;;;;;;;1.27;1.15;;;;;;;17.46;50.03;92928.72;5039827;28;20053;-87
2022/11/05 02:16:52;;;;;;;1.95;1.00;;;;;;;17.44;50.31;92937.44;5076995;28;20035;-86
2022/11/05 02:19:41;;;;;;;1.83;1.00;;;;;;;17.42;50.05;92936.47;5091336;28;20113;-86
2022/11/05 02:22:28;;;;;;;1.17;0.90;;;;;;;17.44;50.14;92939.44;5078779;28;20050;-87
2022/11/05 02:25:09;;;;;;;1.40;1.10;;;;;;;17.44;50.34;92933.97;5105326;28;20032;-87
2022/11/05 02:27:52;;;;;;;1.45;1.00;;;;;;;17.42;49.99;92939.94;5091868;28;20040;-87
2022/11/05 02:30:28;;;;;;;1.30;1.10;;;;;;;17.43;50.26;92946.16;5087436;28;20074;-86
2022/11/05 02:33:05;;;;;;;1.10;1.00;;;;;;;17.42;50.36;92939.22;5067544;28;20028;-89
2022/11/05 02:35:53;;;;;;;1.50;0.77;;;;;;;17.42;50.17;92950.13;5094620;28;20107;-88
2022/11/05 02:38:24;;;;;;;1.70;1.10;;;;;;;17.42;50.25;92963.81;5095843;28;20059;-87
2022/11/05 02:41:03;;;;;;;1.15;0.75;;;;;;;17.42;50.38;92961.81;5069436;28;20039;-89
2022/11/05 02:43:46;;;;;;;1.02;0.82;;;;;;;17.42;50.11;92953.63;5070676;28;20031;-88
2022/11/05 02:46:26;;;;;;;2.10;0.85;;;;;;;17.43;50.15;92952.38;5075551;28;20078;-87
2022/11/05 02:49:02;;;;;;;1.00;0.90;;;;;;;17.42;50.36;92934.50;5060388;28;20048;-88
2022/11/05 02:51:36;;;;;;;2.58;0.90;;;;;;;17.42;50.52;92947.41;5075239;28;20418;-87
2022/11/05 02:54:20;;;;;;;1.20;0.95;;;;;;;17.43;50.32;92959.81;5077002;28;20048;-86
2022/11/05 02:56:47;;;;;;;1.27;1.10;;;;;;;17.40;50.16;92937.00;5053004;28;20035;-86
2022/11/05 02:59:12;;;;;;;1.70;1.00;;;;;;;17.42;50.33;92928.28;5022143;28;20044;-88
2022/11/05 03:01:38;;;;;;;1.70;1.10;;;;;;;17.42;50.56;92925.56;5092150;28;20030;-88
2022/11/05 03:04:04;;;;;;;1.52;1.02;;;;;;;17.41;50.22;92937.72;5092701;28;20061;-87
2022/11/05 03:06:51;;;;;;;1.48;1.00;;;;;;;17.41;50.22;92937.72;5056542;28;20044;-90
2022/11/05 03:09:36;;;;;;;1.25;0.80;;;;;;;17.40;50.08;92947.19;5090472;28;20032;-89
2022/11/05 03:12:26;;;;;;;1.08;0.80;;;;;;;17.41;50.30;92951.41;5055130;28;20174;-87
2022/11/05 03:15:22;;;;;;;1.40;1.00;;;;;;;17.41;50.08;92962.31;5073053;28;20040;-87
2022/11/05 03:18:09;;;;;;;1.70;1.10;;;;;;;17.39;50.29;92957.38;5098581;28;20032;-86
2022/11/05 03:20:51;;;;;;;0.90;0.70;;;;;;;17.42;50.36;92958.34;5089016;28;20051;-89
2022/11/05 03:23:31;;;;;;;1.25;0.80;;;;;;;17.41;50.28;92957.59;5059419;28;20359;-87
2022/11/05 03:26:01;;;;;;;1.40;1.10;;;;;;;17.39;50.14;92960.09;5075993;28;20113;-86
2022/11/05 03:28:27;;;;;;;1.50;0.90;;;;;;;17.40;50.15;92958.84;5073626;28;20040;-86
2022/11/05 03:30:53;;;;;;;0.95;0.73;;;;;;;17.39;50.10;92953.91;5064417;28;20066;-86
2022/11/05 03:33:24;;;;;;;0.82;0.70;;;;;;;17.41;50.07;92954.13;5038318;28;20079;-89
2022/11/05 03:35:58;;;;;;;1.23;0.77;;;;;;;17.39;50.47;92951.91;5075696;28;20039;-87
2022/11/05 03:38:27;;;;;;;1.35;1.02;;;;;;;17.38;50.28;92961.34;5059340;28;20031;-86
2022/11/05 03:40:54;;;;;;;1.08;0.85;;;;;;;17.38;50.32;92961.34;5078168;28;20044;-88
2022/11/05 03:43:19;;;;;;;1.17;0.85;;;;;;;17.37;50.24;92957.16;5088216;28;20407;-86
2022/11/05 03:45:54;;;;;;;0.75;0.68;;;;;;;17.40;50.09;92983.44;5058455;28;20043;-87
2022/11/05 03:48:19;;;;;;;0.90;0.70;;;;;;;17.43;50.12;92981.69;5075676;28;20039;-88
2022/11/05 03:50:56;;;;;;;1.52;1.02;;;;;;;17.40;50.19;92977.97;5067128;27;20035;-87
2022/11/05 03:53:26;;;;;;;1.17;0.85;;;;;;;17.41;50.23;92973.25;5084324;28;20449;-88
2022/11/05 03:56:00;;;;;;;;;;;;;;;17.43;50.37;92971.50;5056049;28;20043;-87
2022/11/05 03:58:25;;;;;;;1.67;1.13;;;;;;;17.39;50.16;92979.22;5071611;28;19920;-86
2022/11/05 04:00:51;;;;;;;1.02;0.80;;;;;;;17.38;50.42;92977.00;5083983;27;20489;-87
2022/11/05 04:03:16;;;;;;;1.00;0.90;;;;;;;17.37;50.19;92973.53;5111980;27;20064;-89
2022/11/05 04:05:42;;;;;;;0.82;0.70;;;;;;;17.39;50.04;92973.03;5093447;27;20042;-89
2022/11/05 04:13:36;;;;;;;0.98;0.80;;;;;;;17.37;50.18;92973.53;5100458;27;20066;-86
2022/11/05 04:18:45;;;;;;;1.17;0.70;;;;;;;17.37;50.37;92981.00;5071249;28;20166;-89
2022/11/05 04:24:10;;;;;;;0.90;0.73;;;;;;;17.37;50.57;92972.78;5060173;28;20097;-89
2022/11/05 04:26:36;;;;;;;1.42;0.82;;;;;;;17.40;50.29;92977.25;5067267;28;20115;-89
2022/11/05 04:31:46;;;;;;;1.52;0.93;;;;;;;17.35;49.99;92978.78;5067941;28;20090;-88
2022/11/05 04:34:15;;;;;;;1.20;0.80;;;;;;;17.35;50.50;92972.56;5037377;28;20047;-86
2022/11/05 04:36:41;;;;;;;1.13;0.85;;;;;;;17.37;50.26;92984.47;5059835;28;20170;-86
2022/11/05 04:39:06;;;;;;;1.20;0.90;;;;;;;17.38;50.38;92983.22;5085509;28;20039;-87
2022/11/05 04:41:31;;;;;;;0.70;0.70;;;;;;;17.37;50.12;92973.53;5055715;28;20068;-87
2022/11/05 04:43:57;;;;;;;1.33;0.98;;;;;;;17.36;50.49;92982.25;5088256;28;20086;-87
2022/11/05 04:46:22;;;;;;;0.60;0.52;;;;;;;17.37;50.28;92976.28;5056422;28;20059;-89
2022/11/05 04:48:47;;;;;;;0.98;0.88;;;;;;;17.38;50.57;92974.28;5037886;28;20048;-88
2022/11/05 04:51:13;;;;;;;0.57;0.57;;;;;;;17.37;50.66;92972.78;5070060;28;20040;-86
2022/11/05 04:53:38;;;;;;;1.15;0.75;;;;;;;17.38;50.16;92979.75;5044252;28;20046;-87
2022/11/05 04:56:09;;;;;;;1.67;0.60;;;;;;;17.40;50.52;92988.91;5082496;28;20032;-89
2022/11/05 04:58:38;;;;;;;1.27;1.00;;;;;;;17.39;49.92;92992.16;5088905;28;20047;-87
2022/11/05 05:01:03;;;;;;;0.70;0.70;;;;;;;17.36;50.36;92988.44;5067494;28;20055;-89
2022/11/05 05:03:29;;;;;;;0.60;0.60;;;;;;;17.40;50.16;92983.44;5070506;28;20048;-87
2022/11/05 05:05:54;;;;;;;1.13;0.70;;;;;;;17.37;50.24;92986.47;5084117;28;20051;-86
2022/11/05 05:08:19;;;;;;;1.10;0.90;;;;;;;17.35;50.40;92992.44;5053246;28;20089;-89
2022/11/05 05:10:45;;;;;;;0.70;0.70;;;;;;;17.35;50.08;92986.22;5070200;28;20036;-88
2022/11/05 05:13:10;;;;;;;0.82;0.70;;;;;;;17.39;50.43;92990.16;5053183;28;20040;-86
2022/11/05 05:15:36;;;;;;;0.70;0.70;;;;;;;17.38;50.62;92999.59;5054433;28;20111;-89
2022/11/05 05:18:01;;;;;;;0.70;0.70;;;;;;;17.39;50.56;93000.34;5056886;28;20100;-87
2022/11/05 05:23:11;;;;;;;1.13;0.50;;;;;;;17.34;50.32;93009.34;5112928;27;20095;-87
2022/11/05 05:25:36;;;;;;;0.93;0.80;;;;;;;17.36;50.27;93006.84;5092246;27;20293;-88
2022/11/05 05:28:01;;;;;;;0.73;0.73;;;;;;;17.33;50.45;93011.34;5087370;28;20387;-87
2022/11/05 05:30:27;;;;;;;2.70;0.85;;;;;;;17.36;50.10;93023.97;5059349;28;20047;-86
2022/11/05 05:32:52;;;;;;;0.68;0.43;;;;;;;17.36;50.17;93023.97;5087405;28;20038;-88
2022/11/05 05:35:18;;;;;;;1.20;0.80;;;;;;;17.35;50.30;93024.47;5072787;28;20032;-86
2022/11/05 05:37:43;;;;;;;1.20;0.77;;;;;;;17.34;50.11;93023.00;5089912;28;20024;-88
2022/11/05 05:40:09;;;;;;;0.77;0.77;;;;;;;17.33;50.29;93021.53;5089653;28;20046;-87
2022/11/05 05:42:34;;;;;;;0.77;0.60;;;;;;;17.33;50.13;93035.91;5089243;28;20047;-88
2022/11/05 05:45:00;;;;;;;2.00;1.00;;;;;;;17.33;50.29;93030.44;5073181;28;20490;-87
2022/11/05 05:47:25;;;;;;;0.90;0.70;;;;;;;17.32;50.19;93042.63;5061288;28;20066;-87
2022/11/05 05:49:51;;;;;;;1.23;0.77;;;;;;;17.33;50.04;93044.13;5069938;28;20036;-87
2022/11/05 05:52:16;;;;;;;2.15;0.75;;;;;;;17.33;50.26;93049.56;5052376;28;20398;-86
2022/11/05 05:54:41;;;;;;;0.90;0.85;;;;;;;17.32;50.36;93041.91;5053290;28;20035;-88
2022/11/05 05:57:07;;;;;;;0.70;0.70;;;;;;;17.32;50.54;93045.38;5040770;28;20036;-86
2022/11/05 05:59:33;;;;;;;1.10;0.73;;;;;;;17.36;50.23;93040.38;5068332;28;20032;-86
2022/11/05 06:01:59;;;;;;;0.88;0.68;;;;;;;17.34;50.24;93053.06;5053522;28;20044;-86
2022/11/05 06:04:25;;;;;;;0.95;0.63;;;;;;;17.33;50.51;93057.78;5052785;28;20047;-88
2022/11/05 06:06:50;;;;;;;0.88;0.80;;;;;;;17.37;50.28;93076.63;5077918;28;20040;-88
2022/11/05 06:09:15;;;;;;;0.93;0.70;;;;;;;17.37;49.97;93071.16;5069062;28;20036;-88
2022/11/05 06:11:41;;;;;;;0.85;0.73;;;;;;;17.35;50.20;93074.41;5070539;28;20244;-87
2022/11/05 06:14:09;;;;;;;0.80;0.70;;;;;;;17.37;50.25;93071.16;5069065;28;20028;-87
2022/11/05 06:16:34;;;;;;;0.88;0.60;;;;;;;17.33;50.06;93081.63;5086722;28;20036;-87
2022/11/05 06:19:01;;;;;;;1.00;0.90;;;;;;;17.33;50.19;93087.09;5061308;28;20050;-87
2022/11/05 06:21:26;;;;;;;1.13;0.70;;;;;;;17.32;50.29;93088.38;5036083;28;20059;-88
2022/11/05 06:23:52;;;;;;;0.60;0.50;;;;;;;17.31;50.26;93089.63;5053041;28;20071;-87
2022/11/05 06:26:17;;;;;;;0.55;0.55;;;;;;;17.32;50.19;93096.56;5068926;28;20102;-90
2022/11/05 06:28:43;;;;;;;0.80;0.70;;;;;;;17.32;50.18;93105.47;5063292;28;20032;-86
2022/11/05 06:31:09;;;;;;;0.70;0.70;;;;;;;17.31;50.26;93104.00;5044546;28;20066;-88
2022/11/05 06:33:34;;;;;;;0.63;0.60;;;;;;;17.33;50.45;93108.94;5033877;28;20036;-87
2022/11/05 06:36:00;;;;;;;1.05;0.95;;;;;;;17.31;50.40;93117.69;5050143;28;20391;-88
2022/11/05 06:38:26;;;;;;;0.88;0.75;;;;;;;17.31;50.22;93123.13;5046194;28;20039;-87
2022/11/05 06:40:51;;;;;;;0.82;0.77;;;;;;;17.32;50.21;93135.53;5073299;28;20048;-87
2022/11/05 06:43:17;;;;;;;1.27;0.70;;;;;;;17.33;49.92;93128.81;5027410;28;20395;-87
2022/11/05 06:45:42;;;;;;;4.18;0.95;;;;;;;17.33;50.08;93137.00;5033880;28;20020;-87
2022/11/05 06:48:08;;;;;;;3.67;1.20;;;;;;;17.37;49.98;93137.47;5054655;28;20433;-87
2022/11/05 06:50:33;;;;;;;2.15;1.10;;;;;;;17.34;50.08;93143.22;5052274;28;20036;-87
2022/11/05 06:52:59;;;;;;;2.67;1.33;;;;;;;17.36;50.02;93149.66;5052184;28;20036;-87
2022/11/05 06:55:26;;;;;;;4.88;1.75;;;;;;;17.32;50.15;93157.38;5041259;28;20099;-87
2022/11/05 06:57:52;;;;;;;3.65;2.22;;;;;;;17.35;50.36;93153.63;5019736;28;20063;-87
2022/11/05 07:00:17;;;;;;;14.57;3.45;;;;;;;17.33;50.12;93155.38;5045818;28;20482;-87
2022/11/05 07:02:43;;;;;;;4.78;2.08;;;;;;;17.32;50.34;93162.84;5036603;28;20037;-87
2022/11/05 07:05:11;;;;;;;8.73;2.70;;;;;;;17.34;49.95;93154.13;5019624;28;20070;-87
2022/11/05 07:07:37;;;;;;;10.55;2.80;;;;;;;17.31;50.08;93161.38;5036252;28;20497;-87
2022/11/05 07:10:04;;;;;;;5.43;2.50;;;;;;;17.33;50.22;93166.31;5072594;28;20040;-88
2022/11/05 07:12:30;;;;;;;5.22;2.65;;;;;;;17.34;50.33;93167.81;5056349;28;20039;-87
2022/11/05 07:14:55;;;;;;;5.00;2.50;;;;;;;17.35;50.18;93170.03;5039499;28;20352;-87
2022/11/05 07:17:21;;;;;;;5.15;2.63;;;;;;;17.36;50.25;93174.25;5072390;28;20039;-87
2022/11/05 07:19:46;;;;;;;8.02;3.85;;;;;;;17.34;50.21;93173.25;5072273;28;20076;-88
2022/11/05 07:22:11;;;;;;;7.22;4.07;;;;;;;17.33;50.07;93174.50;5038675;28;20036;-88
2022/11/05 07:24:37;;;;;;;9.90;4.60;;;;;;;17.35;50.06;93180.22;5039003;28;20028;-88
2022/11/05 07:27:02;;;;;;;9.18;5.03;;;;;;;17.33;50.47;93186.19;5038893;28;20445;-87
2022/11/05 07:29:28;;;;;;;7.90;4.53;;;;;;;17.36;50.05;93195.34;5056868;28;20043;-88
2022/11/05 07:31:53;;;;;;;15.23;6.03;;;;;;;17.35;49.70;93196.59;5063895;28;20504;-88
2022/11/05 07:34:18;;;;;;;13.50;6.80;;;;;;;17.35;49.85;93197.34;5058592;28;20050;-88
2022/11/05 07:36:44;;;;;;;15.15;6.90;;;;;;;17.37;50.03;93205.03;5076543;28;20028;-88
2022/11/05 07:39:09;;;;;;;14.88;7.25;;;;;;;17.33;50.25;93205.31;5091543;28;20104;-88
2022/11/05 07:41:35;;;;;;;22.50;7.95;;;;;;;17.35;50.05;93205.53;5075844;28;20051;-88
2022/11/05 07:44:00;;;;;;;21.38;10.93;;;;;;;17.36;50.36;93200.81;5075737;28;20034;-88
2022/11/05 07:46:25;;;;;;;28.85;13.68;;;;;;;17.34;49.95;93206.06;5075311;28;20369;-88
2022/11/05 07:48:51;;;;;;;35.10;15.80;;;;;;;17.34;50.08;93214.25;5076999;27;20043;-87
2022/11/05 07:51:16;;;;;;;39.95;16.80;;;;;;;17.35;50.34;93218.47;5078262;27;20050;-88
2022/11/05 07:53:42;;;;;;;35.13;16.15;;;;;;;17.33;50.19;93223.69;5095175;27;20538;-88
2022/11/05 07:56:07;;;;;;;43.40;19.27;;;;;;;17.33;50.01;93220.97;5090735;28;20043;-89
2022/11/05 07:58:35;;;;;;;55.17;21.58;;;;;;;17.33;49.89;93231.88;5055237;28;20035;-87
2022/11/05 08:01:01;;;;;;;39.22;20.42;;;;;;;17.35;50.12;93232.88;5078623;27;20043;-87
2022/11/05 08:03:26;;;;;;;59.97;21.63;;;;;;;17.34;50.13;93222.44;5111397;27;20070;-87
2022/11/05 08:05:51;;;;;;;62.50;23.73;;;;;;;17.37;50.21;93227.63;5110751;27;20447;-87
2022/11/05 08:08:17;;;;;;;48.95;23.80;;;;;;;17.38;49.81;93242.03;5055805;28;20550;-87
2022/11/05 08:10:43;;;;;;;48.88;23.30;;;;;;;17.34;49.94;93241.56;5070719;28;20490;-87
2022/11/05 08:13:08;;;;;;;53.58;23.17;;;;;;;17.37;50.30;93249.50;5070897;28;20032;-87
2022/11/05 08:15:34;;;;;;;43.20;21.13;;;;;;;17.37;50.10;93248.75;5071145;28;20057;-87
2022/11/05 08:18:01;;;;;;;31.33;14.40;;;;;;;17.31;48.47;93248.81;5055941;28;20439;-87
2022/11/05 08:20:27;;;;;;;28.85;13.10;;;;;;;17.27;47.35;93258.53;5062840;28;20055;-87
2022/11/05 08:22:53;;;;;;;90.20;59.15;;;;;;;17.21;47.22;93252.34;5058113;28;20489;-87
2022/11/05 08:25:19;;;;;;;46.15;25.67;;;;;;;17.20;47.27;93256.31;5052496;28;20040;-87
2022/11/05 08:27:44;;;;;;;34.25;15.50;;;;;;;17.19;47.01;93252.13;5054273;28;20575;-87
2022/11/05 08:30:10;;;;;;;32.20;14.20;;;;;;;17.18;46.94;93248.63;5109253;27;20042;-86
2022/11/05 08:32:35;;;;;;;35.22;14.77;;;;;;;17.19;47.13;93246.66;5070765;28;20077;-87
2022/11/05 08:35:01;;;;;;;39.38;15.77;;;;;;;17.22;47.72;93251.09;5053744;28;20062;-88
2022/11/05 08:37:26;;;;;;;47.40;15.10;;;;;;;17.24;47.63;93241.16;5083464;28;20066;-88
2022/11/05 08:39:53;;;;;;;34.17;14.40;;;;;;;17.23;47.92;93244.38;5037117;28;20410;-87
2022/11/05 08:42:18;;;;;;;46.00;14.85;;;;;;;17.25;48.01;93255.56;5052791;28;20036;-87
2022/11/05 08:44:43;;;;;;;34.55;15.57;;;;;;;17.25;48.80;93250.09;5053854;28;20039;-87
2022/11/05 08:47:09;;;;;;;31.88;15.75;;;;;;;17.29;49.11;93253.31;5069952;28;20090;-87
2022/11/05 08:49:34;;;;;;;30.08;15.63;;;;;;;17.27;49.06;93259.28;5053870;28;20039;-87
2022/11/05 08:52:01;;;;;;;26.65;15.18;;;;;;;17.30;49.82;93257.50;5053376;28;20113;-87
2022/11/05 08:54:26;;;;;;;33.90;15.13;;;;;;;17.29;49.50;93240.38;5053163;28;20036;-88
2022/11/05 08:56:52;;;;;;;29.73;15.18;;;;;;;17.32;49.59;93244.09;5069959;28;20050;-86
2022/11/05 08:59:17;;;;;;;28.42;13.98;;;;;;;17.28;49.87;93252.56;5055176;28;21001;-88
2022/11/05 09:01:43;;;;;;;30.58;14.88;;;;;;;17.30;49.90;93244.59;5073661;28;20028;-87
2022/11/05 09:04:08;;;;;;;30.45;13.63;;;;;;;17.31;49.68;93246.09;5055524;28;20073;-87
2022/11/05 09:06:33;;;;;;;27.80;13.82;;;;;;;17.32;49.28;93246.81;5069328;28;20458;-87
2022/11/05 09:08:59;;;;;;;26.63;13.75;;;;;;;17.31;49.75;93246.09;5053308;28;21073;-86
2022/11/05 09:11:24;;;;;;;25.92;13.65;;;;;;;17.34;49.68;93242.31;5040499;28;20403;-87
2022/11/05 09:13:50;;;;;;;31.88;14.10;;;;;;;17.32;49.58;93249.56;5057035;28;20446;-86
2022/11/05 09:16:18;;;;;;;21.00;12.18;;;;;;;17.35;49.84;93259.44;5055605;28;20040;-88
2022/11/05 09:18:44;;;;;;;30.35;13.00;;;;;;;17.33;49.75;93248.28;5086435;28;20075;-87
2022/11/05 09:21:09;;;;;;;26.90;12.63;;;;;;;17.33;49.81;93257.22;5045792;28;20032;-87
2022/11/05 09:23:34;;;;;;;20.27;11.52;;;;;;;17.33;49.92;93254.50;5037000;28;20063;-89
2022/11/05 09:26:00;;;;;;;20.08;11.52;;;;;;;17.34;49.67;93263.44;5036940;28;20044;-88
2022/11/05 09:28:27;;;;;;;27.08;11.55;;;;;;;17.35;49.66;93262.91;5054253;28;20429;-87
2022/11/05 09:30:52;;;;;;;21.60;11.05;;;;;;;17.34;49.50;93260.69;5071540;28;20039;-87
2022/11/05 09:33:20;;;;;;;21.10;11.55;;;;;;;17.36;49.36;93253.47;5071321;28;20044;-87
2022/11/05 09:35:45;;;;;;;22.80;12.15;;;;;;;17.33;49.89;93257.22;5073560;28;20516;-89
2022/11/05 09:38:11;;;;;;;21.48;11.20;;;;;;;17.37;49.70;93259.69;5072350;28;20040;-87
2022/11/05 09:40:46;;;;;;;19.90;11.20;;;;;;;17.37;49.65;93273.34;5072915;28;20442;-88
2022/11/05 09:43:19;;;;;;;19.60;10.60;;;;;;;17.36;50.08;93278.06;5076801;28;20092;-88
2022/11/05 09:45:45;;;;;;;23.08;10.50;;;;;;;17.36;50.04;93271.84;5073122;28;20058;-87
2022/11/05 09:48:13;;;;;;;16.52;10.07;;;;;;;17.36;49.97;93282.78;5072894;28;20035;-87
2022/11/05 09:50:40;;;;;;;19.48;10.98;;;;;;;17.39;49.90;93282.53;5073151;28;20043;-88
2022/11/05 09:53:05;;;;;;;16.20;9.45;;;;;;;17.37;50.18;93290.47;5051659;28;20567;-88
2022/11/05 09:55:38;;;;;;;18.52;10.35;;;;;;;17.36;50.04;93288.25;5050188;28;20044;-88
2022/11/05 09:58:12;;;;;;;19.13;9.90;;;;;;;17.38;49.85;93288.50;5053081;28;20040;-87
2022/11/05 10:00:38;;;;;;;20.75;9.77;;;;;;;17.39;49.96;93289.97;5064788;28;20035;-87
2022/11/05 10:03:05;;;;;;;17.13;9.27;;;;;;;17.39;49.94;93292.72;5083656;28;20550;-88
2022/11/05 10:05:31;;;;;;;18.77;9.00;;;;;;;17.38;49.84;93291.97;5076268;28;20031;-87
2022/11/05 10:08:15;;;;;;;15.90;9.75;;;;;;;17.38;50.01;93286.50;5083847;28;20413;-87
2022/11/05 10:10:48;;;;;;;13.40;8.60;;;;;;;17.39;50.16;93290.72;5089451;28;20142;-87
2022/11/05 10:13:24;;;;;;;17.05;8.80;;;;;;;17.41;49.86;93293.69;5071770;28;20040;-88
2022/11/05 10:15:54;;;;;;;12.98;8.60;;;;;;;17.42;49.88;93297.91;5072712;28;20039;-87
2022/11/05 10:18:32;;;;;;;13.02;7.28;;;;;;;17.39;48.79;93300.91;5052486;28;20040;-88
2022/11/05 10:20:58;;;;;;;11.18;7.28;;;;;;;17.31;48.25;93297.25;5052514;28;20031;-87
2022/11/05 10:23:24;;;;;;;13.10;6.22;;;;;;;17.26;47.63;93287.84;5068787;28;20386;-87
2022/11/05 10:25:52;;;;;;;13.13;5.35;;;;;;;17.23;47.74;93288.84;5052812;28;20119;-90
2022/11/05 10:28:19;;;;;;;13.98;5.82;;;;;;;17.26;47.71;93295.28;5037274;28;20037;-87
2022/11/05 10:30:46;;;;;;;10.73;5.53;;;;;;;17.26;47.40;93298.03;5059301;28;20113;-88
2022/11/05 10:33:13;;;;;;;11.27;5.68;;;;;;;17.27;47.00;93299.50;5049437;28;20076;-89
2022/11/05 10:35:45;;;;;;;13.18;6.07;;;;;;;17.28;47.58;93299.00;5020040;28;20760;-88
2022/11/05 10:38:12;;;;;;;12.52;5.70;;;;;;;17.29;47.16;93302.47;5036819;28;20041;-87
2022/11/05 10:40:44;;;;;;;16.27;5.72;;;;;;;17.30;48.11;93290.31;5035872;28;20063;-87
2022/11/05 10:43:29;;;;;;;14.40;7.03;;;;;;;17.30;48.29;93293.03;5052110;28;20047;-87
2022/11/05 10:46:01;;;;;;;10.80;6.50;;;;;;;17.32;48.47;93301.47;5038481;28;20035;-87
2022/11/05 10:48:52;;;;;;;14.57;7.15;;;;;;;17.32;48.81;93306.94;5035359;28;20040;-87
2022/11/05 10:51:17;;;;;;;12.88;6.75;;;;;;;17.32;48.99;93309.66;5035169;28;20143;-87
2022/11/05 10:53:50;;;;;;;16.08;6.55;;;;;;;17.32;48.98;93306.94;5043860;28;20499;-87
2022/11/05 10:56:35;;;;;;;10.40;5.60;;;;;;;17.29;47.91;93307.94;5034805;28;20032;-88
2022/11/05 10:59:02;;;;;;;8.48;5.18;;;;;;;17.28;47.68;93307.19;5035945;28;20481;-87
2022/11/05 11:01:27;;;;;;;12.85;4.72;;;;;;;17.28;47.89;93292.78;5053993;28;20032;-87
2022/11/05 11:04:04;;;;;;;30.77;6.47;;;;;;;17.33;47.86;93300.19;5037668;28;20039;-87
2022/11/05 11:06:31;;;;;;;8.63;5.65;;;;;;;17.31;48.12;93306.19;5056007;28;20047;-88
2022/11/05 11:08:59;;;;;;;9.45;5.72;;;;;;;17.32;48.26;93304.91;5025678;28;20064;-86
2022/11/05 11:11:27;;;;;;;8.90;5.38;;;;;;;17.35;48.27;93308.63;5041007;28;20036;-88
2022/11/05 11:13:56;;;;;;;12.93;6.32;;;;;;;17.33;48.38;93306.41;5038209;28;20033;-87
2022/11/05 11:16:23;;;;;;;13.02;6.15;;;;;;;17.36;48.58;93297.19;5089868;28;20036;-86
2022/11/05 11:18:59;;;;;;;8.98;5.38;;;;;;;17.38;48.29;93297.44;5044343;28;20041;-88
2022/11/05 11:21:25;;;;;;;13.52;5.90;;;;;;;17.42;48.30;93297.91;5047994;28;20059;-87
2022/11/05 11:23:54;;;;;;;8.10;5.35;;;;;;;17.41;49.16;93304.63;5021462;28;20131;-86
2022/11/05 11:26:20;;;;;;;11.98;6.22;;;;;;;17.40;48.56;93302.38;5088907;28;20040;-86
2022/11/05 11:28:49;;;;;;;9.05;5.22;;;;;;;17.43;49.09;93306.84;5052369;28;20070;-86
2022/11/05 11:31:16;;;;;;;12.02;5.55;;;;;;;17.39;49.17;93309.84;5048046;28;20410;-86
2022/11/05 11:33:45;;;;;;;12.18;5.70;;;;;;;17.40;49.13;93308.59;5054535;28;20028;-86
2022/11/05 11:36:10;;;;;;;9.88;5.32;;;;;;;17.40;48.93;93319.53;5035036;28;20043;-86
2022/11/05 11:38:36;;;;;;;8.57;4.80;;;;;;;17.41;49.22;93312.81;5019036;28;20036;-86
2022/11/05 11:41:24;;;;;;;10.43;5.32;;;;;;;17.42;49.03;93321.75;5017081;28;20685;-86
2022/11/05 11:43:53;;;;;;;7.47;4.82;;;;;;;17.41;48.92;93325.75;5036267;28;20073;-86
2022/11/05 11:46:18;;;;;;;8.07;4.72;;;;;;;17.41;49.16;93325.75;5073294;28;20051;-86
2022/11/05 11:48:47;;;;;;;8.55;4.32;;;;;;;17.40;49.23;93319.53;5058109;28;20064;-86
2022/11/05 11:51:29;;;;;;;7.78;4.75;;;;;;;17.40;49.39;93322.25;5074154;28;20036;-86
2022/11/05 11:53:58;;;;;;;12.57;4.60;;;;;;;17.41;49.01;93321.00;5091912;28;20267;-86
2022/11/05 11:56:23;;;;;;;8.13;4.47;;;;;;;17.43;48.95;93325.97;5066907;28;20032;-86
2022/11/05 11:58:54;;;;;;;11.38;4.75;;;;;;;17.42;48.89;93332.69;5038471;28;20035;-86
2022/11/05 12:01:22;;;;;;;;;;;;;;;17.45;48.92;93329.69;5071093;28;20573;-86
2022/11/05 12:03:55;;;;;;;10.38;4.63;;;;;;;17.41;49.16;93329.22;5089328;28;19927;-86
2022/11/05 12:06:45;;;;;;;9.50;4.60;;;;;;;17.39;49.50;93339.91;5053212;28;20050;-86
2022/11/05 12:09:35;;;;;;;9.80;4.90;;;;;;;17.39;49.23;93350.09;5065131;28;20430;-86
2022/11/05 12:12:13;;;;;;;8.30;4.55;;;;;;;17.39;49.47;93336.44;5034715;28;20280;-86
2022/11/05 12:14:51;;;;;;;6.72;5.05;;;;;;;17.40;49.57;93349.59;5037677;28;20506;-86